sensor_id;sensor_type;location;lat;lon;timestamp;pressure;altitude;pressure_sealevel;temperature;humidity
51083;BME280;37131;42.694;23.350;2023-07-13T00:01:49;95689.50;;;21.35;73.51
51083;BME280;37131;42.694;23.350;2023-07-13T00:04:15;95691.88;;;21.37;73.70
51083;BME280;37131;42.694;23.350;2023-07-13T00:06:41;95689.72;;;21.39;73.00
51083;BME280;37131;42.694;23.350;2023-07-13T00:09:09;95686.53;;;21.42;73.36
51083;BME280;37131;42.694;23.350;2023-07-13T00:11:35;95690.25;;;21.41;73.60
51083;BME280;37131;42.694;23.350;2023-07-13T00:14:00;95690.53;;;21.40;73.71
51083;BME280;37131;42.694;23.350;2023-07-13T00:16:25;95696.63;;;21.40;73.18
51083;BME280;37131;42.694;23.350;2023-07-13T00:18:50;95690.53;;;21.40;72.86
51083;BME280;37131;42.694;23.350;2023-07-13T00:21:17;95683.59;;;21.44;72.77
51083;BME280;37131;42.694;23.350;2023-07-13T00:23:43;95678.91;;;21.35;73.68
51083;BME280;37131;42.694;23.350;2023-07-13T00:26:08;95682.41;;;21.31;74.34
51083;BME280;37131;42.694;23.350;2023-07-13T00:28:35;95680.25;;;21.33;74.91
51083;BME280;37131;42.694;23.350;2023-07-13T00:31:00;95671.78;;;21.31;74.57
51083;BME280;37131;42.694;23.350;2023-07-13T00:33:27;95675.75;;;21.33;75.67
51083;BME280;37131;42.694;23.350;2023-07-13T00:35:53;95674.94;;;21.33;76.46
51083;BME280;37131;42.694;23.350;2023-07-13T00:38:19;95663.09;;;21.25;78.85
51083;BME280;37131;42.694;23.350;2023-07-13T00:40:44;95675.16;;;21.12;80.47
51083;BME280;37131;42.694;23.350;2023-07-13T00:43:19;95675.16;;;21.12;81.16
51083;BME280;37131;42.694;23.350;2023-07-13T00:48:11;95675.22;;;21.07;83.22
51083;BME280;37131;42.694;23.350;2023-07-13T00:50:37;95675.25;;;21.02;84.39
51083;BME280;37131;42.694;23.350;2023-07-13T00:53:02;95680.78;;;21.06;85.08
51083;BME280;37131;42.694;23.350;2023-07-13T00:55:28;95670.47;;;21.04;86.91
51083;BME280;37131;42.694;23.350;2023-07-13T00:57:53;95669.91;;;21.07;87.58
51083;BME280;37131;42.694;23.350;2023-07-13T01:00:19;95669.44;;;21.00;89.62
51083;BME280;37131;42.694;23.350;2023-07-13T01:02:46;95667.16;;;20.88;91.48
51083;BME280;37131;42.694;23.350;2023-07-13T01:05:14;95667.19;;;20.83;92.08
51083;BME280;37131;42.694;23.350;2023-07-13T01:07:40;95664.84;;;20.81;92.13
51083;BME280;37131;42.694;23.350;2023-07-13T01:10:06;95666.28;;;20.68;94.23
51083;BME280;37131;42.694;23.350;2023-07-13T01:12:32;95661.28;;;20.67;94.35
51083;BME280;37131;42.694;23.350;2023-07-13T01:15:00;95673.13;;;20.75;93.74
51083;BME280;37131;42.694;23.350;2023-07-13T01:17:27;95666.50;;;20.72;94.10
51083;BME280;37131;42.694;23.350;2023-07-13T01:19:53;95668.16;;;20.63;95.54
51083;BME280;37131;42.694;23.350;2023-07-13T01:22:18;95660.75;;;20.60;95.88
51083;BME280;37131;42.694;23.350;2023-07-13T01:24:46;95660.28;;;20.53;96.82
51083;BME280;37131;42.694;23.350;2023-07-13T01:27:13;95659.53;;;20.47;97.64
51083;BME280;37131;42.694;23.350;2023-07-13T01:29:39;95657.94;;;20.46;98.32
51083;BME280;37131;42.694;23.350;2023-07-13T01:32:07;95658.19;;;20.49;97.87
51083;BME280;37131;42.694;23.350;2023-07-13T01:34:33;95657.88;;;20.56;97.87
51083;BME280;37131;42.694;23.350;2023-07-13T01:36:58;95667.41;;;20.57;98.15
51083;BME280;37131;42.694;23.350;2023-07-13T01:39:24;95658.66;;;20.57;98.49
51083;BME280;37131;42.694;23.350;2023-07-13T01:41:49;95663.41;;;20.60;99.06
51083;BME280;37131;42.694;23.350;2023-07-13T01:44:14;95665.31;;;20.54;99.98
51083;BME280;37131;42.694;23.350;2023-07-13T01:46:40;95655.53;;;20.49;100.00
51083;BME280;37131;42.694;23.350;2023-07-13T01:49:05;95666.72;;;20.41;100.00
51083;BME280;37131;42.694;23.350;2023-07-13T01:51:31;95659.88;;;20.35;100.00
51083;BME280;37131;42.694;23.350;2023-07-13T01:53:56;95658.50;;;20.43;100.00
51083;BME280;37131;42.694;23.350;2023-07-13T01:56:21;95654.00;;;20.43;100.00
51083;BME280;37131;42.694;23.350;2023-07-13T01:58:47;95659.59;;;20.37;100.00
51083;BME280;37131;42.694;23.350;2023-07-13T02:01:12;95662.03;;;20.33;100.00
51083;BME280;37131;42.694;23.350;2023-07-13T02:03:37;95658.84;;;20.31;100.00
51083;BME280;37131;42.694;23.350;2023-07-13T02:06:03;95666.03;;;20.25;100.00
51083;BME280;37131;42.694;23.350;2023-07-13T02:08:28;95675.34;;;20.23;100.00
51083;BME280;37131;42.694;23.350;2023-07-13T02:10:53;95670.84;;;20.18;100.00
51083;BME280;37131;42.694;23.350;2023-07-13T02:13:18;95671.91;;;20.17;100.00
51083;BME280;37131;42.694;23.350;2023-07-13T02:15:44;95669.00;;;20.13;100.00
51083;BME280;37131;42.694;23.350;2023-07-13T02:18:10;95672.28;;;20.00;100.00
51083;BME280;37131;42.694;23.350;2023-07-13T02:20:35;95671.44;;;20.05;100.00
51083;BME280;37131;42.694;23.350;2023-07-13T02:23:00;95666.44;;;20.03;100.00
51083;BME280;37131;42.694;23.350;2023-07-13T02:25:25;95684.25;;;19.87;100.00
51083;BME280;37131;42.694;23.350;2023-07-13T02:27:51;95677.66;;;19.85;100.00
51083;BME280;37131;42.694;23.350;2023-07-13T02:30:17;95689.03;;;19.85;100.00
51083;BME280;37131;42.694;23.350;2023-07-13T02:32:42;95686.66;;;19.84;100.00
51083;BME280;37131;42.694;23.350;2023-07-13T02:35:08;95686.16;;;19.71;100.00
51083;BME280;37131;42.694;23.350;2023-07-13T02:37:34;95684.28;;;19.72;100.00
51083;BME280;37131;42.694;23.350;2023-07-13T02:39:59;95686.69;;;19.68;100.00
51083;BME280;37131;42.694;23.350;2023-07-13T02:42:24;95688.25;;;19.74;100.00
51083;BME280;37131;42.694;23.350;2023-07-13T02:44:49;95682.69;;;19.76;100.00
51083;BME280;37131;42.694;23.350;2023-07-13T02:47:15;95688.53;;;19.68;100.00
51083;BME280;37131;42.694;23.350;2023-07-13T02:49:41;95690.47;;;19.52;100.00
51083;BME280;37131;42.694;23.350;2023-07-13T02:52:06;95686.19;;;19.61;100.00
51083;BME280;37131;42.694;23.350;2023-07-13T02:54:31;95686.75;;;19.58;100.00
51083;BME280;37131;42.694;23.350;2023-07-13T02:56:57;95690.41;;;19.67;100.00
51083;BME280;37131;42.694;23.350;2023-07-13T02:59:22;95689.63;;;19.61;100.00
51083;BME280;37131;42.694;23.350;2023-07-13T03:01:48;95690.44;;;19.57;100.00
51083;BME280;37131;42.694;23.350;2023-07-13T03:04:13;95693.63;;;19.54;100.00
51083;BME280;37131;42.694;23.350;2023-07-13T03:06:38;95703.38;;;19.58;100.00
51083;BME280;37131;42.694;23.350;2023-07-13T03:09:04;95702.38;;;19.49;100.00
51083;BME280;37131;42.694;23.350;2023-07-13T03:11:29;95703.72;;;19.36;100.00
51083;BME280;37131;42.694;23.350;2023-07-13T03:13:55;95705.84;;;19.29;100.00
51083;BME280;37131;42.694;23.350;2023-07-13T03:16:20;95702.41;;;19.23;100.00
51083;BME280;37131;42.694;23.350;2023-07-13T03:18:46;95705.06;;;19.28;100.00
51083;BME280;37131;42.694;23.350;2023-07-13T03:21:12;95707.44;;;19.30;100.00
51083;BME280;37131;42.694;23.350;2023-07-13T03:23:37;95707.16;;;19.32;100.00
51083;BME280;37131;42.694;23.350;2023-07-13T03:26:04;95702.69;;;19.27;100.00
51083;BME280;37131;42.694;23.350;2023-07-13T03:28:29;95703.50;;;19.22;100.00
51083;BME280;37131;42.694;23.350;2023-07-13T03:31:03;95704.53;;;19.21;100.00
51083;BME280;37131;42.694;23.350;2023-07-13T03:33:29;95711.66;;;19.26;100.00
51083;BME280;37131;42.694;23.350;2023-07-13T03:35:55;95718.53;;;19.22;100.00
51083;BME280;37131;42.694;23.350;2023-07-13T03:38:20;95716.44;;;19.24;100.00
51083;BME280;37131;42.694;23.350;2023-07-13T03:40:46;95716.72;;;19.22;100.00
51083;BME280;37131;42.694;23.350;2023-07-13T03:43:11;95717.75;;;19.26;100.00
51083;BME280;37131;42.694;23.350;2023-07-13T03:45:39;95709.56;;;19.23;100.00
51083;BME280;37131;42.694;23.350;2023-07-13T03:48:05;95711.16;;;19.19;100.00
51083;BME280;37131;42.694;23.350;2023-07-13T03:50:30;95710.09;;;19.20;100.00
51083;BME280;37131;42.694;23.350;2023-07-13T03:52:57;95702.41;;;19.23;100.00
51083;BME280;37131;42.694;23.350;2023-07-13T03:55:22;95713.53;;;19.25;100.00
51083;BME280;37131;42.694;23.350;2023-07-13T03:57:47;95708.50;;;19.29;100.00
51083;BME280;37131;42.694;23.350;2023-07-13T04:00:13;95708.75;;;19.27;100.00
51083;BME280;37131;42.694;23.350;2023-07-13T04:02:38;95708.50;;;19.29;100.00
51083;BME280;37131;42.694;23.350;2023-07-13T04:05:04;95707.69;;;19.34;100.00
51083;BME280;37131;42.694;23.350;2023-07-13T04:07:29;95706.84;;;19.49;100.00
51083;BME280;37131;42.694;23.350;2023-07-13T04:09:54;95703.41;;;19.53;100.00
51083;BME280;37131;42.694;23.350;2023-07-13T04:12:19;95702.34;;;19.59;100.00
51083;BME280;37131;42.694;23.350;2023-07-13T04:14:45;95705.50;;;19.61;100.00
51083;BME280;37131;42.694;23.350;2023-07-13T04:17:10;95698.09;;;19.58;100.00
51083;BME280;37131;42.694;23.350;2023-07-13T04:19:35;95711.84;;;19.60;100.00
51083;BME280;37131;42.694;23.350;2023-07-13T04:22:01;95719.22;;;19.69;100.00
51083;BME280;37131;42.694;23.350;2023-07-13T04:24:26;95725.56;;;19.83;100.00
51083;BME280;37131;42.694;23.350;2023-07-13T04:26:51;95693.81;;;19.73;100.00
51083;BME280;37131;42.694;23.350;2023-07-13T04:29:16;95716.22;;;19.96;100.00
51083;BME280;37131;42.694;23.350;2023-07-13T04:31:42;95718.81;;;20.06;100.00
51083;BME280;37131;42.694;23.350;2023-07-13T04:34:07;95718.47;;;20.18;100.00
51083;BME280;37131;42.694;23.350;2023-07-13T04:36:32;95723.00;;;20.18;100.00
51083;BME280;37131;42.694;23.350;2023-07-13T04:38:57;95725.34;;;20.24;100.00
51083;BME280;37131;42.694;23.350;2023-07-13T04:41:23;95727.19;;;20.24;100.00
51083;BME280;37131;42.694;23.350;2023-07-13T04:43:48;95724.00;;;20.27;100.00
51083;BME280;37131;42.694;23.350;2023-07-13T04:46:15;95723.44;;;20.35;100.00
51083;BME280;37131;42.694;23.350;2023-07-13T04:48:41;95720.78;;;20.35;100.00
51083;BME280;37131;42.694;23.350;2023-07-13T04:51:06;95724.25;;;20.30;100.00
51083;BME280;37131;42.694;23.350;2023-07-13T04:53:32;95728.44;;;20.42;100.00
51083;BME280;37131;42.694;23.350;2023-07-13T04:55:58;95742.41;;;20.53;100.00
51083;BME280;37131;42.694;23.350;2023-07-13T04:58:24;95740.47;;;20.63;100.00
51083;BME280;37131;42.694;23.350;2023-07-13T05:00:49;95741.72;;;20.76;100.00
51083;BME280;37131;42.694;23.350;2023-07-13T05:03:14;95741.38;;;20.88;98.27
51083;BME280;37131;42.694;23.350;2023-07-13T05:05:40;95736.66;;;20.80;98.41
51083;BME280;37131;42.694;23.350;2023-07-13T05:08:05;95745.09;;;20.87;99.44
51083;BME280;37131;42.694;23.350;2023-07-13T05:10:32;95738.47;;;20.84;99.86
51083;BME280;37131;42.694;23.350;2023-07-13T05:12:57;95738.94;;;20.92;99.08
51083;BME280;37131;42.694;23.350;2023-07-13T05:15:22;95745.75;;;21.03;99.06
51083;BME280;37131;42.694;23.350;2023-07-13T05:17:48;95748.59;;;21.12;97.48
51083;BME280;37131;42.694;23.350;2023-07-13T05:20:14;95749.84;;;21.19;96.42
51083;BME280;37131;42.694;23.350;2023-07-13T05:22:40;95747.72;;;21.22;94.62
51083;BME280;37131;42.694;23.350;2023-07-13T05:25:05;95748.50;;;21.22;94.90
51083;BME280;37131;42.694;23.350;2023-07-13T05:27:31;95742.34;;;21.32;95.33
51083;BME280;37131;42.694;23.350;2023-07-13T05:29:56;95745.13;;;21.41;95.67
51083;BME280;37131;42.694;23.350;2023-07-13T05:32:22;95744.81;;;21.47;94.67
51083;BME280;37131;42.694;23.350;2023-07-13T05:34:47;95754.28;;;21.59;94.80
51083;BME280;37131;42.694;23.350;2023-07-13T05:37:12;95734.59;;;21.65;94.09
51083;BME280;37131;42.694;23.350;2023-07-13T05:39:37;95751.41;;;21.79;91.26
51083;BME280;37131;42.694;23.350;2023-07-13T05:42:03;95754.94;;;21.94;88.09
51083;BME280;37131;42.694;23.350;2023-07-13T05:44:28;95748.53;;;22.00;87.92
51083;BME280;37131;42.694;23.350;2023-07-13T05:46:53;95747.66;;;22.04;87.34
51083;BME280;37131;42.694;23.350;2023-07-13T05:49:21;95757.13;;;22.11;87.70
51083;BME280;37131;42.694;23.350;2023-07-13T05:51:46;95747.53;;;22.15;87.21
51083;BME280;37131;42.694;23.350;2023-07-13T05:54:11;95745.03;;;22.23;86.60
51083;BME280;37131;42.694;23.350;2023-07-13T05:56:36;95744.94;;;22.34;85.66
51083;BME280;37131;42.694;23.350;2023-07-13T05:59:02;95745.84;;;22.43;84.88
51083;BME280;37131;42.694;23.350;2023-07-13T06:01:27;95739.81;;;22.56;84.44
51083;BME280;37131;42.694;23.350;2023-07-13T06:03:52;95740.53;;;22.62;83.25
51083;BME280;37131;42.694;23.350;2023-07-13T06:06:17;95734.97;;;22.77;82.64
51083;BME280;37131;42.694;23.350;2023-07-13T06:08:43;95733.75;;;22.89;80.75
51083;BME280;37131;42.694;23.350;2023-07-13T06:11:15;95734.94;;;22.97;81.18
51083;BME280;37131;42.694;23.350;2023-07-13T06:13:41;95741.38;;;23.09;83.11
51083;BME280;37131;42.694;23.350;2023-07-13T06:16:06;95748.47;;;23.00;80.70
51083;BME280;37131;42.694;23.350;2023-07-13T06:18:33;95752.53;;;23.11;81.07
51083;BME280;37131;42.694;23.350;2023-07-13T06:20:59;95741.84;;;23.17;82.74
51083;BME280;37131;42.694;23.350;2023-07-13T06:23:24;95749.28;;;23.15;82.30
51083;BME280;37131;42.694;23.350;2023-07-13T06:25:50;95747.34;;;23.20;81.99
51083;BME280;37131;42.694;23.350;2023-07-13T06:28:15;95744.44;;;23.36;81.31
51083;BME280;37131;42.694;23.350;2023-07-13T06:30:40;95747.97;;;23.45;80.38
51083;BME280;37131;42.694;23.350;2023-07-13T06:33:05;95749.09;;;23.58;78.86
51083;BME280;37131;42.694;23.350;2023-07-13T06:35:31;95746.91;;;23.46;80.42
51083;BME280;37131;42.694;23.350;2023-07-13T06:37:56;95747.59;;;23.52;77.84
51083;BME280;37131;42.694;23.350;2023-07-13T06:40:21;95742.16;;;23.71;75.77
51083;BME280;37131;42.694;23.350;2023-07-13T06:42:46;95743.47;;;23.87;75.20
51083;BME280;37131;42.694;23.350;2023-07-13T06:45:12;95742.72;;;24.01;75.09
51083;BME280;37131;42.694;23.350;2023-07-13T06:47:37;95738.84;;;24.07;73.65
51083;BME280;37131;42.694;23.350;2023-07-13T06:50:02;95735.47;;;24.15;72.64
51083;BME280;37131;42.694;23.350;2023-07-13T06:52:28;95731.28;;;24.37;73.03
51083;BME280;37131;42.694;23.350;2023-07-13T06:54:53;95738.28;;;24.32;72.17
51083;BME280;37131;42.694;23.350;2023-07-13T06:57:18;95734.50;;;24.47;71.72
51083;BME280;37131;42.694;23.350;2023-07-13T06:59:43;95734.19;;;24.49;68.93
51083;BME280;37131;42.694;23.350;2023-07-13T07:02:10;95739.53;;;24.49;67.35
51083;BME280;37131;42.694;23.350;2023-07-13T07:04:35;95744.25;;;24.52;64.79
51083;BME280;37131;42.694;23.350;2023-07-13T07:07:00;95740.25;;;24.77;66.11
51083;BME280;37131;42.694;23.350;2023-07-13T07:09:26;95728.78;;;24.99;63.50
51083;BME280;37131;42.694;23.350;2023-07-13T07:11:51;95736.66;;;25.04;64.84
51083;BME280;37131;42.694;23.350;2023-07-13T07:14:16;95729.75;;;25.03;62.67
51083;BME280;37131;42.694;23.350;2023-07-13T07:16:42;95720.09;;;25.16;62.62
51083;BME280;37131;42.694;23.350;2023-07-13T07:19:07;95732.53;;;25.21;62.85
51083;BME280;37131;42.694;23.350;2023-07-13T07:21:33;95725.97;;;25.27;64.11
51083;BME280;37131;42.694;23.350;2023-07-13T07:23:58;95721.97;;;25.38;63.21
51083;BME280;37131;42.694;23.350;2023-07-13T07:26:25;95732.88;;;25.60;61.08
51083;BME280;37131;42.694;23.350;2023-07-13T07:28:50;95730.63;;;25.44;61.00
51083;BME280;37131;42.694;23.350;2023-07-13T07:31:15;95723.06;;;25.37;63.79
51083;BME280;37131;42.694;23.350;2023-07-13T07:33:40;95720.00;;;25.53;61.67
51083;BME280;37131;42.694;23.350;2023-07-13T07:36:05;95714.22;;;25.68;60.62
51083;BME280;37131;42.694;23.350;2023-07-13T07:38:31;95710.81;;;25.77;60.90
51083;BME280;37131;42.694;23.350;2023-07-13T07:40:56;95707.66;;;25.83;59.54
51083;BME280;37131;42.694;23.350;2023-07-13T07:43:21;95710.41;;;26.09;58.43
51083;BME280;37131;42.694;23.350;2023-07-13T07:45:47;95703.69;;;26.21;58.94
51083;BME280;37131;42.694;23.350;2023-07-13T07:48:12;95702.09;;;26.20;59.45
51083;BME280;37131;42.694;23.350;2023-07-13T07:50:37;95700.22;;;26.29;59.14
51083;BME280;37131;42.694;23.350;2023-07-13T07:53:04;95706.22;;;26.43;60.38
51083;BME280;37131;42.694;23.350;2023-07-13T07:55:32;95704.47;;;26.56;58.46
51083;BME280;37131;42.694;23.350;2023-07-13T07:57:58;95693.00;;;26.73;56.09
51083;BME280;37131;42.694;23.350;2023-07-13T08:00:23;95688.25;;;26.88;55.10
51083;BME280;37131;42.694;23.350;2023-07-13T08:02:48;95692.19;;;26.99;55.78
51083;BME280;37131;42.694;23.350;2023-07-13T08:05:13;95688.88;;;27.02;56.24
51083;BME280;37131;42.694;23.350;2023-07-13T08:07:39;95679.44;;;26.96;55.93
51083;BME280;37131;42.694;23.350;2023-07-13T08:10:05;95671.72;;;27.03;54.43
51083;BME280;37131;42.694;23.350;2023-07-13T08:12:34;95669.47;;;27.14;54.50
51083;BME280;37131;42.694;23.350;2023-07-13T08:15:00;95673.19;;;27.30;53.44
51083;BME280;37131;42.694;23.350;2023-07-13T08:17:26;95674.09;;;27.43;53.41
51083;BME280;37131;42.694;23.350;2023-07-13T08:19:51;95675.63;;;27.53;53.76
51083;BME280;37131;42.694;23.350;2023-07-13T08:22:16;95671.75;;;27.42;53.34
51083;BME280;37131;42.694;23.350;2023-07-13T08:24:41;95661.34;;;27.49;52.57
51083;BME280;37131;42.694;23.350;2023-07-13T08:27:10;95661.75;;;27.60;52.89
51083;BME280;37131;42.694;23.350;2023-07-13T08:29:36;95663.66;;;27.59;51.63
51083;BME280;37131;42.694;23.350;2023-07-13T08:32:01;95661.66;;;27.47;51.00
51083;BME280;37131;42.694;23.350;2023-07-13T08:34:27;95657.13;;;27.69;51.45
51083;BME280;37131;42.694;23.350;2023-07-13T08:36:52;95656.56;;;27.85;51.95
51083;BME280;37131;42.694;23.350;2023-07-13T08:39:17;95646.56;;;27.94;50.53
51083;BME280;37131;42.694;23.350;2023-07-13T08:41:44;95647.50;;;28.19;50.80
51083;BME280;37131;42.694;23.350;2023-07-13T08:44:22;95638.75;;;28.31;50.99
51083;BME280;37131;42.694;23.350;2023-07-13T08:46:50;95642.44;;;28.39;51.35
51083;BME280;37131;42.694;23.350;2023-07-13T08:49:18;95644.72;;;28.49;49.82
51083;BME280;37131;42.694;23.350;2023-07-13T08:51:52;95654.03;;;28.51;50.06
51083;BME280;37131;42.694;23.350;2023-07-13T08:56:53;95659.13;;;28.65;48.68
51083;BME280;37131;42.694;23.350;2023-07-13T08:59:19;95656.50;;;28.78;49.20
51083;BME280;37131;42.694;23.350;2023-07-13T09:04:14;95672.28;;;28.92;46.82
51083;BME280;37131;42.694;23.350;2023-07-13T09:07:41;95666.94;;;29.04;47.71
51083;BME280;37131;42.694;23.350;2023-07-13T09:09:41;95675.19;;;28.86;48.07
51083;BME280;37131;42.694;23.350;2023-07-13T09:12:11;95671.84;;;29.02;47.45
51083;BME280;37131;42.694;23.350;2023-07-13T09:17:05;95673.84;;;29.38;47.22
51083;BME280;37131;42.694;23.350;2023-07-13T09:19:35;95667.56;;;29.47;47.30
51083;BME280;37131;42.694;23.350;2023-07-13T09:22:01;95668.25;;;29.31;46.19
51083;BME280;37131;42.694;23.350;2023-07-13T09:24:32;95670.81;;;29.40;47.13
51083;BME280;37131;42.694;23.350;2023-07-13T09:27:01;95664.78;;;29.43;47.94
51083;BME280;37131;42.694;23.350;2023-07-13T09:29:30;95670.28;;;29.59;46.59
51083;BME280;37131;42.694;23.350;2023-07-13T09:32:00;95658.06;;;29.74;47.58
51083;BME280;37131;42.694;23.350;2023-07-13T09:34:28;95658.53;;;29.88;46.54
51083;BME280;37131;42.694;23.350;2023-07-13T09:36:55;95662.97;;;30.09;45.68
51083;BME280;37131;42.694;23.350;2023-07-13T09:39:28;95658.44;;;30.25;43.69
51083;BME280;37131;42.694;23.350;2023-07-13T09:42:07;95655.94;;;30.33;43.74
51083;BME280;37131;42.694;23.350;2023-07-13T09:44:38;95652.13;;;30.34;44.62
51083;BME280;37131;42.694;23.350;2023-07-13T09:47:15;95644.72;;;30.43;44.82
51083;BME280;37131;42.694;23.350;2023-07-13T09:49:41;95643.09;;;30.54;45.44
51083;BME280;37131;42.694;23.350;2023-07-13T09:52:10;95635.59;;;30.76;44.71
51083;BME280;37131;42.694;23.350;2023-07-13T09:54:36;95631.28;;;30.87;44.04
51083;BME280;37131;42.694;23.350;2023-07-13T09:57:02;95623.41;;;31.10;41.96
51083;BME280;37131;42.694;23.350;2023-07-13T09:59:29;95622.44;;;31.03;42.78
51083;BME280;37131;42.694;23.350;2023-07-13T10:01:55;95620.19;;;31.05;42.00
51083;BME280;37131;42.694;23.350;2023-07-13T10:04:26;95615.66;;;31.09;41.20
51083;BME280;37131;42.694;23.350;2023-07-13T10:06:52;95611.50;;;31.27;41.23
51083;BME280;37131;42.694;23.350;2023-07-13T10:09:29;95613.22;;;31.36;41.48
51083;BME280;37131;42.694;23.350;2023-07-13T10:11:54;95604.59;;;31.46;39.89
51083;BME280;37131;42.694;23.350;2023-07-13T10:14:20;95602.78;;;31.66;40.48
51083;BME280;37131;42.694;23.350;2023-07-13T10:16:48;95605.63;;;31.73;41.61
51083;BME280;37131;42.694;23.350;2023-07-13T10:19:19;95601.88;;;31.97;38.12
51083;BME280;37131;42.694;23.350;2023-07-13T10:21:52;95605.59;;;32.09;38.62
51083;BME280;37131;42.694;23.350;2023-07-13T10:24:26;95604.91;;;32.12;39.49
51083;BME280;37131;42.694;23.350;2023-07-13T10:27:27;95599.72;;;32.23;39.46
51083;BME280;37131;42.694;23.350;2023-07-13T10:29:57;95595.00;;;32.39;35.17
51083;BME280;37131;42.694;23.350;2023-07-13T10:32:26;95585.97;;;32.51;34.54
51083;BME280;37131;42.694;23.350;2023-07-13T10:34:51;95576.59;;;32.64;33.43
51083;BME280;37131;42.694;23.350;2023-07-13T10:40:05;95585.00;;;33.05;33.30
51083;BME280;37131;42.694;23.350;2023-07-13T10:42:33;95575.88;;;33.14;32.81
51083;BME280;37131;42.694;23.350;2023-07-13T10:45:00;95573.72;;;33.23;31.91
51083;BME280;37131;42.694;23.350;2023-07-13T10:47:26;95564.53;;;33.28;31.81
51083;BME280;37131;42.694;23.350;2023-07-13T10:49:52;95560.84;;;33.39;31.65
51083;BME280;37131;42.694;23.350;2023-07-13T10:55:02;95555.97;;;33.49;30.63
51083;BME280;37131;42.694;23.350;2023-07-13T10:57:28;95555.00;;;33.64;29.98
51083;BME280;37131;42.694;23.350;2023-07-13T11:02:28;95542.06;;;33.77;28.68
51083;BME280;37131;42.694;23.350;2023-07-13T11:04:54;95540.19;;;33.81;28.92
51083;BME280;37131;42.694;23.350;2023-07-13T11:07:27;95534.97;;;33.69;28.85
51083;BME280;37131;42.694;23.350;2023-07-13T11:09:54;95533.25;;;33.84;29.18
51083;BME280;37131;42.694;23.350;2023-07-13T11:22:44;95523.16;;;34.15;27.49
51083;BME280;37131;42.694;23.350;2023-07-13T11:25:30;95515.34;;;34.06;29.06
51083;BME280;37131;42.694;23.350;2023-07-13T11:28:06;95512.03;;;34.20;31.48
51083;BME280;37131;42.694;23.350;2023-07-13T11:30:35;95509.88;;;34.33;30.12
51083;BME280;37131;42.694;23.350;2023-07-13T11:33:02;95505.97;;;34.30;29.37
51083;BME280;37131;42.694;23.350;2023-07-13T11:35:31;95510.19;;;34.28;29.21
51083;BME280;37131;42.694;23.350;2023-07-13T11:37:58;95507.59;;;34.38;27.52
51083;BME280;37131;42.694;23.350;2023-07-13T11:40:25;95504.84;;;34.35;29.92
51083;BME280;37131;42.694;23.350;2023-07-13T11:42:58;95499.50;;;34.42;28.15
51083;BME280;37131;42.694;23.350;2023-07-13T11:45:23;95496.44;;;34.43;28.35
51083;BME280;37131;42.694;23.350;2023-07-13T11:47:49;95497.69;;;34.57;27.91
51083;BME280;37131;42.694;23.350;2023-07-13T11:50:22;95492.69;;;34.59;27.80
51083;BME280;37131;42.694;23.350;2023-07-13T11:52:49;95486.50;;;34.58;29.04
51083;BME280;37131;42.694;23.350;2023-07-13T11:55:16;95495.44;;;34.66;28.73
51083;BME280;37131;42.694;23.350;2023-07-13T11:57:46;95480.78;;;34.71;29.07
51083;BME280;37131;42.694;23.350;2023-07-13T12:00:14;95478.13;;;34.74;29.31
51083;BME280;37131;42.694;23.350;2023-07-13T12:02:43;95480.03;;;34.74;29.42
51083;BME280;37131;42.694;23.350;2023-07-13T12:05:10;95475.78;;;34.73;30.69
51083;BME280;37131;42.694;23.350;2023-07-13T12:07:37;95470.06;;;34.82;31.57
51083;BME280;37131;42.694;23.350;2023-07-13T12:12:29;95470.91;;;34.93;30.34
51083;BME280;37131;42.694;23.350;2023-07-13T12:14:55;95468.97;;;34.90;28.47
51083;BME280;37131;42.694;23.350;2023-07-13T12:17:21;95463.41;;;34.75;28.70
51083;BME280;37131;42.694;23.350;2023-07-13T12:19:50;95455.41;;;34.86;28.41
51083;BME280;37131;42.694;23.350;2023-07-13T12:22:17;95458.16;;;34.93;29.11
51083;BME280;37131;42.694;23.350;2023-07-13T12:24:43;95438.03;;;34.94;28.29
51083;BME280;37131;42.694;23.350;2023-07-13T12:27:19;95441.53;;;34.95;29.18
51083;BME280;37131;42.694;23.350;2023-07-13T12:29:51;95445.44;;;35.01;29.15
51083;BME280;37131;42.694;23.350;2023-07-13T12:32:18;95444.25;;;34.99;29.41
51083;BME280;37131;42.694;23.350;2023-07-13T12:34:53;95431.84;;;34.94;28.45
51083;BME280;37131;42.694;23.350;2023-07-13T12:37:19;95424.53;;;35.02;29.45
51083;BME280;37131;42.694;23.350;2023-07-13T12:39:46;95431.91;;;35.05;29.24
51083;BME280;37131;42.694;23.350;2023-07-13T12:44:48;95421.03;;;35.01;28.52
51083;BME280;37131;42.694;23.350;2023-07-13T12:47:14;95423.44;;;35.13;26.53
51083;BME280;37131;42.694;23.350;2023-07-13T12:49:42;95419.56;;;35.11;26.50
51083;BME280;37131;42.694;23.350;2023-07-13T12:52:15;95405.66;;;35.20;26.39
51083;BME280;37131;42.694;23.350;2023-07-13T12:54:41;95408.34;;;35.16;27.89
51083;BME280;37131;42.694;23.350;2023-07-13T12:57:08;95402.53;;;35.14;28.80
51083;BME280;37131;42.694;23.350;2023-07-13T12:59:39;95400.63;;;35.22;29.03
51083;BME280;37131;42.694;23.350;2023-07-13T13:02:15;95409.97;;;35.31;29.67
51083;BME280;37131;42.694;23.350;2023-07-13T13:04:42;95401.09;;;35.31;26.92
51083;BME280;37131;42.694;23.350;2023-07-13T13:07:08;95401.06;;;35.27;26.37
51083;BME280;37131;42.694;23.350;2023-07-13T13:09:34;95402.22;;;35.30;26.86
51083;BME280;37131;42.694;23.350;2023-07-13T13:12:00;95397.22;;;35.32;27.08
51083;BME280;37131;42.694;23.350;2023-07-13T13:14:25;95387.88;;;35.26;27.29
51083;BME280;37131;42.694;23.350;2023-07-13T13:16:51;95390.59;;;35.26;25.68
51083;BME280;37131;42.694;23.350;2023-07-13T13:19:23;95387.91;;;35.29;25.80